Time;durP1;ratioP1;P1;durP2;ratioP2;P2;SDS_P1;SDS_P2;PMS_P1;PMS_P2;Temp;Humidity;BMP_temperature;BMP_pressure;BME280_temperature;BME280_humidity;BME280_pressure;Samples;Min_cycle;Max_cycle;Signal;HPM_P1;HPM_P2
2021/04/02 00:01:09;;;;;;;6.57;3.10;;;;;;;;;;5094928;28;20649;-77
2021/04/02 00:03:36;;;;;;;5.97;3.70;;;;;;;;;;5094729;28;20629;-78
2021/04/02 00:06:04;;;;;;;5.13;3.30;;;;;;;;;;5095096;28;20225;-79
2021/04/02 00:08:30;;;;;;;6.33;3.37;;;;;;;;;;5094423;28;20241;-78
2021/04/02 00:10:57;;;;;;;4.97;3.20;;;;;;;;;;5094324;28;20233;-78
2021/04/02 00:13:25;;;;;;;5.33;2.70;;;;;;;;;;5096742;28;20240;-79
2021/04/02 00:15:51;;;;;;;4.53;2.97;;;;;;;;;;5098313;28;20514;-79
2021/04/02 00:18:18;;;;;;;3.70;3.10;;;;;;;;;;5098491;28;20226;-83
2021/04/02 00:20:45;;;;;;;4.90;3.03;;;;;;;;;;5098332;28;20229;-78
2021/04/02 00:23:12;;;;;;;3.33;3.03;;;;;;;;;;5098409;28;20241;-79
2021/04/02 00:25:38;;;;;;;5.73;3.37;;;;;;;;;;5098230;28;20519;-79
2021/04/02 00:28:05;;;;;;;5.00;3.13;;;;;;;;;;5098220;28;20235;-80
2021/04/02 00:30:33;;;;;;;4.17;2.63;;;;;;;;;;5096913;28;20326;-80
2021/04/02 00:32:59;;;;;;;6.57;3.20;;;;;;;;;;5097619;28;20230;-78
2021/04/02 00:35:26;;;;;;;4.80;2.90;;;;;;;;;;5097106;28;20246;-79
2021/04/02 00:37:52;;;;;;;3.10;2.70;;;;;;;;;;5097969;28;20234;-80
2021/04/02 00:40:20;;;;;;;5.73;2.80;;;;;;;;;;5097686;28;20229;-79
2021/04/02 00:42:47;;;;;;;4.37;2.70;;;;;;;;;;5098114;28;20226;-79
2021/04/02 00:45:13;;;;;;;6.13;2.70;;;;;;;;;;5097304;28;20202;-79
2021/04/02 00:47:39;;;;;;;3.90;2.60;;;;;;;;;;5098023;28;20201;-79
2021/04/02 00:50:08;;;;;;;6.07;3.00;;;;;;;;;;5097607;28;20505;-79
2021/04/02 00:52:34;;;;;;;4.67;3.00;;;;;;;;;;5097863;28;20229;-78
2021/04/02 00:55:00;;;;;;;6.13;3.00;;;;;;;;;;5097225;28;20256;-79
2021/04/02 00:57:27;;;;;;;5.10;2.93;;;;;;;;;;5097818;28;20209;-79
2021/04/02 00:59:53;;;;;;;5.30;3.10;;;;;;;;;;5097558;28;20206;-86
2021/04/02 01:02:19;;;;;;;7.70;3.23;;;;;;;;;;5097977;28;20229;-79
2021/04/02 01:04:46;;;;;;;5.63;2.80;;;;;;;;;;5097893;28;20198;-78
2021/04/02 01:07:12;;;;;;;4.80;2.80;;;;;;;;;;5097969;28;20598;-85
2021/04/02 01:09:38;;;;;;;5.43;2.70;;;;;;;;;;5096962;28;20256;-78
2021/04/02 01:12:05;;;;;;;8.13;3.13;;;;;;;;;;5097754;28;20343;-81
2021/04/02 01:14:32;;;;;;;7.73;3.60;;;;;;;;;;5096777;28;20587;-83
2021/04/02 01:16:58;;;;;;;5.70;3.10;;;;;;;;;;5097837;28;20634;-79
2021/04/02 01:19:28;;;;;;;7.23;3.20;;;;;;;;;;5097157;28;20235;-84
2021/04/02 01:21:57;;;;;;;6.53;3.30;;;;;;;;;;5097407;28;20649;-83
2021/04/02 01:24:32;;;;;;;4.33;2.90;;;;;;;;;;5096997;28;20230;-82
2021/04/02 01:27:25;;;;;;;5.27;3.03;;;;;;;;;;5097249;28;20247;-79
2021/04/02 01:29:54;;;;;;;3.87;2.90;;;;;;;;;;5097191;28;20605;-82
2021/04/02 01:32:24;;;;;;;5.90;2.93;;;;;;;;;;5097400;28;20610;-85
2021/04/02 01:34:50;;;;;;;5.10;2.90;;;;;;;;;;5097014;28;20652;-82
2021/04/02 01:37:21;;;;;;;6.30;2.90;;;;;;;;;;5097400;28;20229;-79
2021/04/02 01:39:48;;;;;;;3.57;2.77;;;;;;;;;;5097574;28;20229;-81
2021/04/02 01:42:16;;;;;;;6.60;2.90;;;;;;;;;;5097400;28;20213;-79
2021/04/02 01:44:43;;;;;;;4.90;3.03;;;;;;;;;;5097211;28;20237;-78
2021/04/02 01:47:11;;;;;;;3.57;2.87;;;;;;;;;;5097122;28;20205;-82
2021/04/02 01:49:37;;;;;;;4.83;2.70;;;;;;;;;;5096528;28;20237;-83
2021/04/02 01:52:04;;;;;;;6.93;2.63;;;;;;;;;;5095542;28;20193;-80
2021/04/02 01:54:31;;;;;;;6.43;2.70;;;;;;;;;;5096840;28;20253;-78
2021/04/02 01:56:57;;;;;;;3.87;2.80;;;;;;;;;;5097235;28;20244;-78
2021/04/02 01:59:24;;;;;;;9.33;3.20;;;;;;;;;;5097154;28;20225;-79
2021/04/02 02:01:51;;;;;;;4.63;3.10;;;;;;;;;;5097034;28;20234;-81
2021/04/02 02:04:20;;;;;;;5.20;3.03;;;;;;;;;;5097240;28;20214;-77
2021/04/02 02:06:47;;;;;;;3.37;2.80;;;;;;;;;;5096836;28;20652;-77
2021/04/02 02:09:15;;;;;;;5.37;3.10;;;;;;;;;;5096317;28;20233;-78
2021/04/02 02:11:41;;;;;;;7.87;3.20;;;;;;;;;;5095947;28;20618;-79
2021/04/02 02:14:11;;;;;;;5.33;2.90;;;;;;;;;;5095626;28;20292;-81
2021/04/02 02:16:39;;;;;;;7.87;3.27;;;;;;;;;;5096155;28;20264;-79
2021/04/02 02:19:11;;;;;;;5.63;3.37;;;;;;;;;;5096124;28;20554;-80
2021/04/02 02:21:41;;;;;;;4.80;3.20;;;;;;;;;;5096130;28;20565;-80
2021/04/02 02:24:08;;;;;;;4.53;3.50;;;;;;;;;;5096153;28;20210;-81
2021/04/02 02:26:34;;;;;;;4.37;3.03;;;;;;;;;;5095756;28;20198;-81
2021/04/02 02:29:00;;;;;;;3.50;3.20;;;;;;;;;;5095914;28;20244;-82
2021/04/02 02:31:26;;;;;;;5.23;3.90;;;;;;;;;;5095849;28;20240;-80
2021/04/02 02:33:52;;;;;;;4.73;3.20;;;;;;;;;;5096036;28;20232;-82
2021/04/02 02:36:18;;;;;;;3.97;3.53;;;;;;;;;;5095360;28;20246;-84
2021/04/02 02:38:45;;;;;;;4.87;3.90;;;;;;;;;;5095971;28;20212;-81
2021/04/02 02:41:12;;;;;;;6.90;3.93;;;;;;;;;;5095927;28;20236;-77
2021/04/02 02:43:38;;;;;;;6.60;3.60;;;;;;;;;;5095488;28;20233;-80
2021/04/02 02:46:04;;;;;;;4.90;4.00;;;;;;;;;;5095221;28;20230;-84
2021/04/02 02:48:31;;;;;;;5.10;3.70;;;;;;;;;;5095712;28;20606;-81
2021/04/02 02:50:58;;;;;;;5.10;3.73;;;;;;;;;;5095237;28;20233;-83
2021/04/02 02:53:26;;;;;;;4.63;4.10;;;;;;;;;;5095649;28;20540;-81
2021/04/02 02:55:54;;;;;;;5.37;3.80;;;;;;;;;;5095678;28;20253;-79
2021/04/02 02:58:22;;;;;;;5.93;4.10;;;;;;;;;;5095816;28;20205;-84
2021/04/02 03:00:49;;;;;;;5.57;4.70;;;;;;;;;;5095651;28;20206;-80
2021/04/02 03:03:17;;;;;;;6.13;4.80;;;;;;;;;;5095544;28;20210;-77
2021/04/02 03:05:45;;;;;;;6.07;4.63;;;;;;;;;;5095730;28;20240;-85
2021/04/02 03:08:13;;;;;;;6.50;5.00;;;;;;;;;;5096040;28;20614;-85
2021/04/02 03:10:40;;;;;;;4.50;4.10;;;;;;;;;;5095466;28;20255;-79
2021/04/02 03:13:08;;;;;;;6.37;5.10;;;;;;;;;;5094308;28;20201;-84
2021/04/02 03:15:34;;;;;;;6.50;4.53;;;;;;;;;;5095711;28;20238;-83
2021/04/02 03:18:01;;;;;;;6.13;4.70;;;;;;;;;;5095188;28;20213;-82
2021/04/02 03:20:28;;;;;;;5.63;5.10;;;;;;;;;;5095365;28;20244;-78
2021/04/02 03:22:55;;;;;;;7.73;4.83;;;;;;;;;;5095358;28;20210;-81
2021/04/02 03:25:22;;;;;;;7.07;4.70;;;;;;;;;;5094125;28;20190;-80
2021/04/02 03:27:49;;;;;;;7.87;5.37;;;;;;;;;;5095020;28;20241;-80
2021/04/02 03:30:17;;;;;;;8.37;4.87;;;;;;;;;;5095468;28;20248;-78
2021/04/02 03:32:45;;;;;;;5.17;4.70;;;;;;;;;;5094867;28;20213;-80
2021/04/02 03:35:13;;;;;;;6.43;4.70;;;;;;;;;;5094918;28;20249;-81
2021/04/02 03:37:40;;;;;;;5.97;4.80;;;;;;;;;;5095276;28;20232;-78
2021/04/02 03:40:10;;;;;;;5.60;5.00;;;;;;;;;;5095377;28;20205;-81
2021/04/02 03:42:37;;;;;;;8.30;5.40;;;;;;;;;;5095582;28;20213;-85
2021/04/02 03:45:04;;;;;;;5.03;4.57;;;;;;;;;;5095680;28;20233;-78
2021/04/02 03:47:33;;;;;;;5.93;5.07;;;;;;;;;;5098028;28;20205;-79
2021/04/02 03:50:00;;;;;;;5.40;4.87;;;;;;;;;;5099083;28;20319;-79
2021/04/02 03:52:30;;;;;;;5.57;5.03;;;;;;;;;;5099187;28;20240;-77
2021/04/02 03:54:57;;;;;;;6.57;5.90;;;;;;;;;;5098841;28;20233;-78
2021/04/02 03:57:24;;;;;;;6.27;5.73;;;;;;;;;;5099136;28;20206;-77
2021/04/02 03:59:51;;;;;;;7.33;5.60;;;;;;;;;;5098423;28;20643;-80
2021/04/02 04:02:18;;;;;;;6.73;5.60;;;;;;;;;;5099085;28;20246;-77
2021/04/02 04:04:46;;;;;;;9.30;5.53;;;;;;;;;;5098707;28;20210;-79
2021/04/02 04:07:12;;;;;;;7.27;5.53;;;;;;;;;;5098577;28;20213;-78
2021/04/02 04:09:39;;;;;;;7.17;5.60;;;;;;;;;;5098264;28;20249;-79
2021/04/02 04:12:07;;;;;;;6.07;5.43;;;;;;;;;;5098888;28;20229;-79
2021/04/02 04:14:34;;;;;;;6.33;5.80;;;;;;;;;;5098423;28;20237;-80
2021/04/02 04:17:01;;;;;;;8.47;5.70;;;;;;;;;;5098690;28;20245;-81
2021/04/02 04:19:28;;;;;;;6.07;5.53;;;;;;;;;;5097936;28;20232;-79
2021/04/02 04:21:57;;;;;;;7.57;5.73;;;;;;;;;;5098992;28;20176;-84
2021/04/02 04:24:23;;;;;;;6.60;6.00;;;;;;;;;;5098811;28;20271;-76
2021/04/02 04:26:51;;;;;;;6.77;6.10;;;;;;;;;;5098582;28;20202;-78
2021/04/02 04:29:18;;;;;;;8.20;6.00;;;;;;;;;;5098347;28;20229;-78
2021/04/02 04:31:45;;;;;;;6.57;5.97;;;;;;;;;;5098912;28;20202;-78
2021/04/02 04:34:12;;;;;;;11.53;6.30;;;;;;;;;;5098571;28;20245;-84
2021/04/02 04:36:38;;;;;;;10.40;6.47;;;;;;;;;;5098445;28;20250;-79
2021/04/02 04:39:06;;;;;;;6.77;6.17;;;;;;;;;;5098261;28;20641;-78
2021/04/02 04:41:33;;;;;;;7.03;6.37;;;;;;;;;;5099011;28;20609;-78
2021/04/02 04:44:00;;;;;;;11.37;7.43;;;;;;;;;;5098136;28;20237;-77
2021/04/02 04:46:26;;;;;;;12.70;7.77;;;;;;;;;;5098321;28;20198;-79
2021/04/02 04:48:52;;;;;;;8.40;6.77;;;;;;;;;;5096670;28;20247;-77
2021/04/02 04:51:20;;;;;;;10.00;6.43;;;;;;;;;;5097949;28;20213;-77
2021/04/02 04:53:47;;;;;;;8.97;6.67;;;;;;;;;;5098226;28;20214;-77
2021/04/02 04:56:15;;;;;;;9.43;6.60;;;;;;;;;;5098434;28;20260;-83
2021/04/02 04:58:44;;;;;;;10.03;6.17;;;;;;;;;;5096308;28;20236;-82
2021/04/02 05:01:12;;;;;;;7.37;5.97;;;;;;;;;;5098368;28;20202;-82
2021/04/02 05:03:38;;;;;;;7.13;6.43;;;;;;;;;;5097836;28;20636;-78
2021/04/02 05:06:06;;;;;;;9.37;6.17;;;;;;;;;;5098566;28;20209;-77
2021/04/02 05:08:34;;;;;;;9.80;6.17;;;;;;;;;;5098078;28;20541;-77
2021/04/02 05:11:00;;;;;;;7.30;6.60;;;;;;;;;;5098386;28;20230;-78
2021/04/02 05:13:30;;;;;;;9.03;6.20;;;;;;;;;;5097710;28;20209;-82
2021/04/02 05:15:56;;;;;;;7.07;6.40;;;;;;;;;;5098063;28;20298;-81
2021/04/02 05:18:23;;;;;;;6.83;6.17;;;;;;;;;;5097748;28;20233;-77
2021/04/02 05:20:49;;;;;;;7.17;6.37;;;;;;;;;;5096581;28;20194;-86
2021/04/02 05:23:17;;;;;;;7.87;6.80;;;;;;;;;;5098494;28;20480;-79
2021/04/02 05:25:43;;;;;;;7.03;6.43;;;;;;;;;;5097709;28;20546;-82
2021/04/02 05:28:09;;;;;;;8.17;6.73;;;;;;;;;;5097532;28;20688;-80
2021/04/02 05:30:37;;;;;;;6.63;6.03;;;;;;;;;;5096867;28;20226;-80
2021/04/02 05:33:03;;;;;;;11.20;6.50;;;;;;;;;;5097044;28;20189;-79
2021/04/02 05:35:29;;;;;;;7.00;6.50;;;;;;;;;;5096671;28;20642;-80
2021/04/02 05:37:55;;;;;;;10.50;6.90;;;;;;;;;;5097163;28;20209;-80
2021/04/02 05:40:22;;;;;;;10.93;6.90;;;;;;;;;;5098317;28;20229;-81
2021/04/02 05:42:51;;;;;;;8.33;7.13;;;;;;;;;;5097174;28;20225;-77
2021/04/02 05:45:18;;;;;;;7.73;6.93;;;;;;;;;;5096857;28;20233;-80
2021/04/02 05:47:47;;;;;;;7.57;6.80;;;;;;;;;;5097039;28;20632;-81
2021/04/02 05:50:14;;;;;;;7.53;6.40;;;;;;;;;;5097199;28;20240;-80
2021/04/02 05:52:44;;;;;;;8.57;6.73;;;;;;;;;;5096028;28;20194;-77
2021/04/02 05:55:11;;;;;;;7.83;6.70;;;;;;;;;;5095546;28;20266;-79
2021/04/02 05:57:37;;;;;;;9.37;6.90;;;;;;;;;;5096798;28;20244;-82
2021/04/02 06:00:04;;;;;;;7.03;6.37;;;;;;;;;;5096639;28;20210;-81
2021/04/02 06:02:30;;;;;;;7.57;6.87;;;;;;;;;;5096836;28;20209;-82
2021/04/02 06:05:00;;;;;;;7.70;7.00;;;;;;;;;;5096492;28;20906;-80
2021/04/02 06:07:26;;;;;;;7.93;7.00;;;;;;;;;;5096782;28;20237;-80
2021/04/02 06:09:52;;;;;;;8.33;6.43;;;;;;;;;;5095784;28;20228;-80
2021/04/02 06:12:22;;;;;;;9.33;6.97;;;;;;;;;;5096581;28;20205;-79
2021/04/02 06:14:49;;;;;;;7.83;7.03;;;;;;;;;;5096590;28;20197;-81
2021/04/02 06:17:16;;;;;;;7.57;6.73;;;;;;;;;;5098092;28;20250;-79
2021/04/02 06:19:42;;;;;;;8.97;6.47;;;;;;;;;;5105423;28;20217;-80
2021/04/02 06:22:10;;;;;;;7.37;6.60;;;;;;;;;;5103531;28;20227;-79
2021/04/02 06:24:37;;;;;;;9.37;6.90;;;;;;;;;;5104338;28;20198;-81
2021/04/02 06:27:05;;;;;;;7.30;6.60;;;;;;;;;;5101532;28;20202;-77
2021/04/02 06:29:31;;;;;;;8.70;7.20;;;;;;;;;;5098500;28;20617;-80
2021/04/02 06:31:57;;;;;;;8.53;6.80;;;;;;;;;;5096742;28;20209;-85
2021/04/02 06:34:26;;;;;;;7.57;6.97;;;;;;;;;;5096570;28;20225;-78
2021/04/02 06:36:58;;;;;;;8.90;7.07;;;;;;;;;;5097137;28;20253;-85
2021/04/02 06:39:29;;;;;;;7.93;7.07;;;;;;;;;;5097089;28;20210;-79
2021/04/02 06:41:56;;;;;;;7.33;6.63;;;;;;;;;;5097626;28;20606;-83
2021/04/02 06:44:23;;;;;;;7.27;6.60;;;;;;;;;;5096604;28;20194;-79
2021/04/02 06:46:49;;;;;;;10.17;7.00;;;;;;;;;;5097785;28;20213;-81
2021/04/02 06:49:16;;;;;;;7.50;6.80;;;;;;;;;;5098122;28;20206;-79
2021/04/02 06:51:43;;;;;;;8.90;6.60;;;;;;;;;;5097738;28;20232;-78
2021/04/02 06:54:12;;;;;;;7.07;6.37;;;;;;;;;;5095205;28;20182;-79
2021/04/02 06:56:42;;;;;;;6.90;6.30;;;;;;;;;;5095504;28;20318;-79
2021/04/02 06:59:08;;;;;;;6.83;6.33;;;;;;;;;;5095116;28;20236;-86
2021/04/02 07:01:35;;;;;;;6.13;5.63;;;;;;;;;;5095394;28;20548;-79
2021/04/02 07:04:01;;;;;;;6.60;6.10;;;;;;;;;;5095284;28;20507;-79
2021/04/02 07:06:28;;;;;;;7.10;6.47;;;;;;;;;;5095838;28;20233;-86
2021/04/02 07:08:54;;;;;;;7.07;6.37;;;;;;;;;;5095491;28;20225;-90
2021/04/02 07:11:21;;;;;;;6.80;6.20;;;;;;;;;;5096917;28;20205;-77
2021/04/02 07:13:49;;;;;;;6.70;6.10;;;;;;;;;;5095284;28;20466;-79
2021/04/02 07:16:17;;;;;;;6.37;5.87;;;;;;;;;;5096099;28;20253;-83
2021/04/02 07:18:43;;;;;;;6.47;5.90;;;;;;;;;;5095824;28;20233;-78
2021/04/02 07:21:09;;;;;;;6.93;6.40;;;;;;;;;;5095404;28;20493;-78
2021/04/02 07:23:36;;;;;;;6.80;6.20;;;;;;;;;;5095413;28;20225;-84
2021/04/02 07:26:02;;;;;;;7.03;6.23;;;;;;;;;;5096051;28;20200;-83
2021/04/02 07:28:28;;;;;;;8.10;6.80;;;;;;;;;;5095463;28;20214;-79
2021/04/02 07:30:56;;;;;;;7.53;6.47;;;;;;;;;;5095620;28;20232;-79
2021/04/02 07:33:23;;;;;;;8.07;7.20;;;;;;;;;;5095503;28;20660;-79
2021/04/02 07:35:55;;;;;;;11.20;6.80;;;;;;;;;;5095005;28;20249;-78
2021/04/02 07:38:24;;;;;;;7.40;6.80;;;;;;;;;;5095266;28;20267;-79
2021/04/02 07:40:50;;;;;;;7.37;6.73;;;;;;;;;;5095575;28;20233;-83
2021/04/02 07:43:16;;;;;;;7.27;6.50;;;;;;;;;;5095207;28;20233;-79
2021/04/02 07:45:51;;;;;;;7.30;6.70;;;;;;;;;;5094984;28;20226;-79
2021/04/02 07:48:20;;;;;;;6.90;6.30;;;;;;;;;;5095127;28;20475;-78
2021/04/02 07:50:47;;;;;;;7.40;6.33;;;;;;;;;;5094909;28;20205;-79
2021/04/02 07:53:14;;;;;;;6.77;6.17;;;;;;;;;;5095061;28;20244;-79
2021/04/02 07:55:44;;;;;;;10.13;6.90;;;;;;;;;;5094611;28;20606;-79
2021/04/02 07:58:19;;;;;;;7.17;6.47;;;;;;;;;;5094764;28;20252;-78
2021/04/02 08:00:47;;;;;;;7.00;6.30;;;;;;;;;;5094423;28;20498;-80
2021/04/02 08:03:14;;;;;;;7.10;6.37;;;;;;;;;;5094861;28;20233;-80
2021/04/02 08:05:46;;;;;;;8.20;6.40;;;;;;;;;;5094318;28;20202;-79
2021/04/02 08:08:15;;;;;;;7.30;6.60;;;;;;;;;;5095050;28;20595;-81
2021/04/02 08:10:56;;;;;;;7.10;6.40;;;;;;;;;;5094572;28;20265;-79
2021/04/02 08:13:25;;;;;;;7.17;5.90;;;;;;;;;;5093952;28;20240;-79
2021/04/02 08:15:52;;;;;;;7.37;6.67;;;;;;;;;;5094574;28;20217;-79
2021/04/02 08:18:19;;;;;;;7.20;6.10;;;;;;;;;;5094604;28;20232;-77
2021/04/02 08:20:50;;;;;;;5.93;5.53;;;;;;;;;;5094446;28;20233;-79
2021/04/02 08:23:16;;;;;;;6.87;6.20;;;;;;;;;;5093092;28;20255;-79
2021/04/02 08:25:42;;;;;;;6.87;6.23;;;;;;;;;;5094143;28;20233;-78
2021/04/02 08:28:10;;;;;;;6.40;5.90;;;;;;;;;;5094525;28;20209;-79
2021/04/02 08:30:36;;;;;;;6.30;5.80;;;;;;;;;;5094186;28;20629;-78
2021/04/02 08:33:03;;;;;;;6.33;5.83;;;;;;;;;;5094591;28;20226;-79
2021/04/02 08:35:29;;;;;;;10.07;5.80;;;;;;;;;;5098012;28;20229;-79
2021/04/02 08:37:57;;;;;;;6.63;5.47;;;;;;;;;;5098557;28;20254;-81
2021/04/02 08:40:23;;;;;;;6.20;5.60;;;;;;;;;;5097880;28;20229;-81
2021/04/02 08:42:49;;;;;;;6.07;5.47;;;;;;;;;;5098292;28;20229;-80
2021/04/02 08:45:18;;;;;;;6.47;5.77;;;;;;;;;;5097735;28;20233;-79
2021/04/02 08:47:46;;;;;;;6.47;5.47;;;;;;;;;;5097805;28;20198;-79
2021/04/02 08:50:13;;;;;;;7.33;5.20;;;;;;;;;;5097198;28;20256;-80
2021/04/02 08:52:39;;;;;;;6.30;5.80;;;;;;;;;;5097319;28;20247;-87
2021/04/02 08:55:07;;;;;;;11.80;5.67;;;;;;;;;;5098595;28;20209;-79
2021/04/02 08:57:36;;;;;;;6.23;5.63;;;;;;;;;;5097575;28;20260;-80
2021/04/02 09:00:04;;;;;;;5.93;5.43;;;;;;;;;;5097516;28;20222;-78
2021/04/02 09:02:32;;;;;;;6.00;5.50;;;;;;;;;;5098132;28;20197;-79
2021/04/02 09:05:00;;;;;;;5.90;5.37;;;;;;;;;;5097297;28;20213;-79
2021/04/02 09:07:26;;;;;;;6.20;5.70;;;;;;;;;;5098157;28;20206;-77
2021/04/02 09:09:52;;;;;;;6.30;5.70;;;;;;;;;;5096114;28;20261;-78
2021/04/02 09:12:20;;;;;;;6.03;5.47;;;;;;;;;;5097442;28;20630;-80
2021/04/02 09:14:47;;;;;;;6.00;5.57;;;;;;;;;;5098639;28;20614;-78
2021/04/02 09:17:14;;;;;;;6.47;5.87;;;;;;;;;;5097827;28;20233;-89
2021/04/02 09:19:40;;;;;;;6.20;5.73;;;;;;;;;;5097019;28;20237;-76
2021/04/02 09:22:07;;;;;;;11.17;5.70;;;;;;;;;;5097855;28;20205;-79
2021/04/02 09:24:33;;;;;;;6.60;6.00;;;;;;;;;;5096878;28;20237;-77
2021/04/02 09:27:06;;;;;;;6.53;6.03;;;;;;;;;;5097675;28;20202;-79
2021/04/02 09:29:33;;;;;;;8.10;5.83;;;;;;;;;;5096373;28;20206;-77
2021/04/02 09:31:59;;;;;;;5.90;5.50;;;;;;;;;;5096859;28;20617;-78
2021/04/02 09:34:25;;;;;;;5.43;5.00;;;;;;;;;;5096744;28;20226;-77
2021/04/02 09:36:52;;;;;;;6.83;6.10;;;;;;;;;;5096742;28;20593;-84
2021/04/02 09:39:22;;;;;;;6.37;5.77;;;;;;;;;;5096836;28;20633;-87
2021/04/02 09:41:49;;;;;;;5.60;5.20;;;;;;;;;;5096485;28;20645;-78
2021/04/02 09:44:16;;;;;;;5.77;5.37;;;;;;;;;;5095826;28;20228;-79
2021/04/02 09:46:44;;;;;;;5.53;5.10;;;;;;;;;;5096219;28;20229;-77
2021/04/02 09:49:11;;;;;;;5.23;4.83;;;;;;;;;;5096206;28;20229;-76
2021/04/02 09:51:43;;;;;;;5.50;5.10;;;;;;;;;;5095267;28;20598;-79
2021/04/02 09:54:09;;;;;;;5.80;5.17;;;;;;;;;;5096215;28;20550;-76
2021/04/02 09:56:36;;;;;;;6.10;5.50;;;;;;;;;;5096913;28;20245;-76
2021/04/02 09:59:02;;;;;;;5.30;4.80;;;;;;;;;;5096567;28;20202;-79
2021/04/02 10:01:28;;;;;;;5.80;5.40;;;;;;;;;;5096298;28;20217;-81
2021/04/02 10:03:55;;;;;;;5.50;5.10;;;;;;;;;;5096129;28;20237;-78
2021/04/02 10:06:22;;;;;;;6.03;5.33;;;;;;;;;;5096273;28;20251;-80
2021/04/02 10:08:48;;;;;;;4.77;4.47;;;;;;;;;;5095836;28;20248;-77
2021/04/02 10:11:14;;;;;;;5.73;5.10;;;;;;;;;;5096231;28;20240;-80
2021/04/02 10:13:40;;;;;;;5.50;5.03;;;;;;;;;;5095936;28;20467;-77
2021/04/02 10:16:07;;;;;;;5.17;4.80;;;;;;;;;;5095433;28;20259;-76
2021/04/02 10:18:33;;;;;;;5.38;5.00;;;;;;;;;;5095601;28;20790;-76
2021/04/02 10:21:00;;;;;;;7.57;4.90;;;;;;;;;;5096080;28;20210;-76
2021/04/02 10:23:26;;;;;;;4.80;4.50;;;;;;;;;;5096016;28;20553;-78
2021/04/02 10:25:52;;;;;;;4.70;4.40;;;;;;;;;;5095656;28;20311;-76
2021/04/02 10:28:20;;;;;;;5.10;4.80;;;;;;;;;;5095996;28;20209;-76
2021/04/02 10:30:48;;;;;;;5.27;4.87;;;;;;;;;;5095815;28;20237;-79
2021/04/02 10:33:14;;;;;;;5.17;4.77;;;;;;;;;;5095540;28;20232;-77
2021/04/02 10:35:40;;;;;;;4.60;4.30;;;;;;;;;;5095295;28;20233;-76
2021/04/02 10:38:07;;;;;;;4.80;4.50;;;;;;;;;;5096068;28;20260;-77
2021/04/02 10:40:34;;;;;;;5.20;4.80;;;;;;;;;;5095388;28;20229;-76
2021/04/02 10:43:00;;;;;;;4.57;4.27;;;;;;;;;;5095452;28;20240;-76
2021/04/02 10:45:26;;;;;;;4.90;4.53;;;;;;;;;;5094990;28;20237;-75
2021/04/02 10:47:52;;;;;;;4.30;4.00;;;;;;;;;;5095829;28;20198;-77
2021/04/02 10:50:19;;;;;;;4.37;4.17;;;;;;;;;;5095054;28;20244;-75
2021/04/02 10:52:45;;;;;;;4.80;4.43;;;;;;;;;;5095120;28;20244;-86
2021/04/02 10:55:13;;;;;;;4.53;4.17;;;;;;;;;;5094461;28;20202;-77
2021/04/02 10:57:39;;;;;;;4.33;4.13;;;;;;;;;;5094582;28;20245;-76
2021/04/02 11:00:06;;;;;;;4.47;3.87;;;;;;;;;;5095870;28;20217;-79
2021/04/02 11:02:32;;;;;;;4.10;3.80;;;;;;;;;;5095520;28;20206;-85
2021/04/02 11:04:59;;;;;;;3.87;3.67;;;;;;;;;;5094631;28;20202;-75
2021/04/02 11:07:25;;;;;;;3.73;3.53;;;;;;;;;;5095498;28;20201;-75
2021/04/02 11:09:52;;;;;;;4.00;3.77;;;;;;;;;;5095240;28;20264;-83
2021/04/02 11:12:19;;;;;;;3.80;3.50;;;;;;;;;;5094700;28;20298;-75
2021/04/02 11:14:45;;;;;;;3.80;3.60;;;;;;;;;;5095088;28;20613;-75
2021/04/02 11:17:11;;;;;;;4.60;4.30;;;;;;;;;;5094143;28;20229;-77
2021/04/02 11:19:37;;;;;;;4.70;4.30;;;;;;;;;;5095104;28;20601;-75
2021/04/02 11:22:03;;;;;;;4.80;4.50;;;;;;;;;;5095147;28;20233;-85
2021/04/02 11:24:30;;;;;;;4.00;3.70;;;;;;;;;;5094849;28;20637;-76
2021/04/02 11:26:56;;;;;;;4.60;4.30;;;;;;;;;;5095039;28;20221;-76
2021/04/02 11:29:23;;;;;;;4.53;4.17;;;;;;;;;;5095147;28;20534;-76
2021/04/02 11:31:49;;;;;;;4.43;4.13;;;;;;;;;;5091368;28;20229;-77
2021/04/02 11:34:15;;;;;;;3.73;3.47;;;;;;;;;;5092054;28;20233;-76
2021/04/02 11:36:41;;;;;;;3.90;3.60;;;;;;;;;;5093146;28;20267;-76
2021/04/02 11:39:07;;;;;;;4.50;4.23;;;;;;;;;;5091135;28;20237;-78
2021/04/02 11:41:33;;;;;;;4.13;3.83;;;;;;;;;;5094223;28;20735;-77
2021/04/02 11:44:00;;;;;;;4.07;3.87;;;;;;;;;;5094947;28;20214;-77
2021/04/02 11:46:26;;;;;;;4.37;4.07;;;;;;;;;;5095203;28;20226;-76
2021/04/02 11:48:53;;;;;;;4.60;4.30;;;;;;;;;;5094008;28;20201;-76
2021/04/02 11:51:19;;;;;;;4.43;4.00;;;;;;;;;;5095566;28;20233;-75
2021/04/02 11:53:45;;;;;;;5.23;4.33;;;;;;;;;;5095975;28;20233;-77
2021/04/02 11:56:11;;;;;;;4.80;4.30;;;;;;;;;;5094201;28;20659;-76
2021/04/02 11:58:37;;;;;;;4.40;4.10;;;;;;;;;;5095045;28;20253;-77
2021/04/02 12:01:03;;;;;;;3.63;3.33;;;;;;;;;;5094521;28;20236;-77
2021/04/02 12:03:30;;;;;;;4.40;4.10;;;;;;;;;;5094790;28;20206;-76
2021/04/02 12:05:56;;;;;;;4.20;3.90;;;;;;;;;;5095015;28;20229;-76
2021/04/02 12:08:22;;;;;;;4.80;4.40;;;;;;;;;;5094314;28;20198;-77
2021/04/02 12:10:49;;;;;;;3.90;3.70;;;;;;;;;;5097053;28;20264;-77
2021/04/02 12:13:15;;;;;;;4.70;4.30;;;;;;;;;;5098011;28;20236;-77
2021/04/02 12:15:41;;;;;;;5.23;4.67;;;;;;;;;;5098274;28;20236;-76
2021/04/02 12:18:07;;;;;;;4.80;4.50;;;;;;;;;;5097985;28;20252;-81
2021/04/02 12:20:34;;;;;;;4.90;4.50;;;;;;;;;;5098520;28;20240;-91
2021/04/02 12:23:00;;;;;;;4.60;4.20;;;;;;;;;;5098730;28;20210;-76
2021/04/02 12:25:28;;;;;;;7.53;4.30;;;;;;;;;;5098020;28;20229;-74
2021/04/02 12:27:54;;;;;;;4.43;4.13;;;;;;;;;;5098175;28;20236;-74
2021/04/02 12:30:20;;;;;;;4.23;3.93;;;;;;;;;;5098090;28;20232;-75
2021/04/02 12:32:46;;;;;;;5.10;4.07;;;;;;;;;;5098182;28;20209;-76
2021/04/02 12:35:13;;;;;;;4.37;4.17;;;;;;;;;;5098038;28;20237;-75
2021/04/02 12:37:40;;;;;;;4.93;4.63;;;;;;;;;;5097947;28;20256;-74
2021/04/02 12:40:08;;;;;;;5.13;4.73;;;;;;;;;;5098078;28;20232;-74
2021/04/02 12:42:34;;;;;;;5.10;4.53;;;;;;;;;;5098262;28;20540;-76
2021/04/02 12:45:00;;;;;;;6.70;4.77;;;;;;;;;;5096391;28;20244;-80
2021/04/02 12:47:26;;;;;;;5.17;4.80;;;;;;;;;;5098273;28;20186;-91
2021/04/02 12:49:52;;;;;;;4.57;4.30;;;;;;;;;;5098742;28;20206;-77
2021/04/02 12:52:19;;;;;;;5.17;4.87;;;;;;;;;;5099052;28;20535;-84
2021/04/02 12:54:45;;;;;;;5.30;4.90;;;;;;;;;;5098222;28;20244;-78
2021/04/02 12:57:12;;;;;;;4.73;4.33;;;;;;;;;;5098221;28;20245;-89
2021/04/02 12:59:38;;;;;;;5.07;4.67;;;;;;;;;;5097329;28;20214;-76
2021/04/02 13:02:05;;;;;;;6.20;4.57;;;;;;;;;;5097150;28;20244;-76
2021/04/02 13:04:31;;;;;;;4.27;4.07;;;;;;;;;;5097567;28;20233;-85
2021/04/02 13:06:58;;;;;;;5.10;3.80;;;;;;;;;;5097929;28;20198;-76
2021/04/02 13:09:24;;;;;;;4.37;3.97;;;;;;;;;;5097158;28;20257;-79
2021/04/02 13:11:51;;;;;;;4.80;4.50;;;;;;;;;;5097319;28;20246;-85
2021/04/02 13:14:17;;;;;;;4.70;4.30;;;;;;;;;;5097348;28;20217;-80
2021/04/02 13:16:43;;;;;;;4.80;4.30;;;;;;;;;;5096649;28;20793;-77
2021/04/02 13:19:09;;;;;;;5.70;5.30;;;;;;;;;;5098643;28;20285;-76
2021/04/02 13:21:35;;;;;;;4.88;4.57;;;;;;;;;;5098637;28;20221;-74
2021/04/02 13:24:02;;;;;;;4.35;4.05;;;;;;;;;;5097023;28;20802;-79
2021/04/02 13:26:28;;;;;;;4.28;4.07;;;;;;;;;;5097871;28;20216;-77
2021/04/02 13:28:55;;;;;;;4.03;3.80;;;;;;;;;;5096709;28;20237;-82
2021/04/02 13:31:21;;;;;;;4.20;3.90;;;;;;;;;;5098062;28;20640;-77
2021/04/02 13:33:48;;;;;;;3.80;3.60;;;;;;;;;;5098089;28;20201;-85
2021/04/02 13:36:20;;;;;;;4.30;3.90;;;;;;;;;;5099672;28;20206;-82
2021/04/02 13:38:51;;;;;;;3.53;3.33;;;;;;;;;;5098991;28;20241;-88
2021/04/02 13:41:20;;;;;;;7.03;4.38;;;;;;;;;;5100888;28;20202;-77
2021/04/02 13:43:46;;;;;;;6.68;3.85;;;;;;;;;;5099327;28;20210;-79
2021/04/02 13:46:13;;;;;;;4.03;3.72;;;;;;;;;;5097857;28;20206;-88
2021/04/02 13:48:40;;;;;;;3.90;3.70;;;;;;;;;;5097343;28;20206;-82
2021/04/02 13:51:06;;;;;;;4.55;4.35;;;;;;;;;;5097499;28;20212;-86
2021/04/02 13:53:32;;;;;;;4.53;3.75;;;;;;;;;;5097342;28;20209;-82
2021/04/02 13:55:59;;;;;;;4.07;3.88;;;;;;;;;;5097234;28;20210;-82
2021/04/02 13:58:25;;;;;;;3.65;3.50;;;;;;;;;;5097271;28;20226;-76
2021/04/02 14:00:51;;;;;;;3.47;3.38;;;;;;;;;;5098202;28;20498;-79
2021/04/02 14:03:18;;;;;;;3.95;3.75;;;;;;;;;;5097221;28;20209;-87
2021/04/02 14:05:44;;;;;;;3.85;3.65;;;;;;;;;;5097871;28;20217;-81
2021/04/02 14:08:10;;;;;;;4.18;3.88;;;;;;;;;;5097736;28;20198;-86
2021/04/02 14:10:37;;;;;;;4.00;3.80;;;;;;;;;;5097133;28;20225;-84
2021/04/02 14:13:03;;;;;;;3.65;3.50;;;;;;;;;;5096530;28;20491;-83
2021/04/02 14:15:30;;;;;;;6.72;3.63;;;;;;;;;;5097188;28;20217;-83
2021/04/02 14:17:57;;;;;;;3.83;3.63;;;;;;;;;;5096315;28;20258;-78
2021/04/02 14:20:26;;;;;;;3.85;3.65;;;;;;;;;;5097488;28;20206;-81
2021/04/02 14:22:52;;;;;;;4.57;4.07;;;;;;;;;;5097547;28;20216;-76
2021/04/02 14:25:20;;;;;;;5.10;3.63;;;;;;;;;;5097547;28;20629;-77
2021/04/02 14:27:46;;;;;;;4.72;3.58;;;;;;;;;;5097366;28;20202;-83
2021/04/02 14:30:13;;;;;;;4.13;3.72;;;;;;;;;;5096183;28;20499;-80
2021/04/02 14:32:39;;;;;;;3.50;3.30;;;;;;;;;;5094746;28;20244;-80
2021/04/02 14:35:06;;;;;;;3.70;3.40;;;;;;;;;;5095816;28;20255;-84
2021/04/02 14:37:33;;;;;;;3.80;3.60;;;;;;;;;;5095339;28;20254;-85
2021/04/02 14:39:59;;;;;;;3.70;3.40;;;;;;;;;;5095711;28;20232;-80
2021/04/02 14:42:25;;;;;;;4.55;4.07;;;;;;;;;;5096028;28;20229;-77